createdAt,value
2023-04-19T00:01:20.253Z,20.27
2023-04-19T00:03:49.169Z,19.17
2023-04-19T00:06:17.990Z,20.97
2023-04-19T00:08:46.598Z,18.57
2023-04-19T00:11:16.599Z,19.73
2023-04-19T00:13:45.641Z,20.33
2023-04-19T00:16:14.292Z,20.20
2023-04-19T00:18:43.035Z,18.47
2023-04-19T00:21:11.708Z,19.67
2023-04-19T00:23:40.089Z,19.23
2023-04-19T00:26:08.576Z,21.47
2023-04-19T00:28:38.787Z,18.13
2023-04-19T00:31:07.660Z,20.47
2023-04-19T00:33:36.113Z,20.23
2023-04-19T00:36:04.528Z,21.03
2023-04-19T00:38:33.270Z,20.53
2023-04-19T00:41:02.353Z,18.97
2023-04-19T00:43:31.252Z,18.07
2023-04-19T00:46:01.806Z,20.40
2023-04-19T00:48:31.939Z,23.33
2023-04-19T00:51:00.645Z,24.50
2023-04-19T00:53:29.442Z,18.07
2023-04-19T00:56:01.540Z,20.50
2023-04-19T00:58:31.810Z,19.33
2023-04-19T01:01:02.393Z,20.13
2023-04-19T01:03:31.510Z,20.40
2023-04-19T01:06:00.286Z,21.20
2023-04-19T01:08:29.004Z,24.17
2023-04-19T01:10:57.766Z,20.10
2023-04-19T01:13:27.972Z,21.57
2023-04-19T01:15:57.371Z,22.63
2023-04-19T01:18:32.889Z,22.17
2023-04-19T01:21:01.341Z,22.20
2023-04-19T01:23:31.412Z,18.53
2023-04-19T01:26:01.350Z,22.90
2023-04-19T01:28:30.655Z,20.40
2023-04-19T01:30:59.295Z,20.83
2023-04-19T01:33:28.248Z,22.97
2023-04-19T01:35:56.948Z,20.17
2023-04-19T01:38:25.684Z,21.67
2023-04-19T01:40:57.248Z,22.17
2023-04-19T01:43:26.706Z,21.83
2023-04-19T01:45:55.386Z,22.70
2023-04-19T01:48:24.383Z,21.03
2023-04-19T01:50:53.260Z,24.20
2023-04-19T01:53:21.591Z,20.23
2023-04-19T01:55:51.935Z,22.90
2023-04-19T01:58:23.554Z,23.17
2023-04-19T02:00:52.009Z,20.57
2023-04-19T02:03:20.984Z,23.50
2023-04-19T02:05:51.471Z,23.13
2023-04-19T02:08:22.767Z,20.50
2023-04-19T02:10:51.494Z,23.30
2023-04-19T02:13:20.165Z,22.63
2023-04-19T02:15:50.528Z,22.50
2023-04-19T02:18:19.209Z,20.53
2023-04-19T02:20:47.793Z,20.63
2023-04-19T02:23:16.501Z,20.87
2023-04-19T02:25:45.178Z,20.53
2023-04-19T02:28:16.437Z,21.80
2023-04-19T02:30:46.192Z,21.03
2023-04-19T02:33:17.245Z,20.93
2023-04-19T02:35:45.905Z,23.27
2023-04-19T02:38:14.562Z,19.37
2023-04-19T02:40:43.189Z,22.87
2023-04-19T02:43:11.809Z,21.17
2023-04-19T02:45:41.013Z,21.70
2023-04-19T02:48:09.985Z,25.50
2023-04-19T02:50:40.750Z,21.47
2023-04-19T02:53:10.282Z,23.57
2023-04-19T02:55:38.785Z,23.13
2023-04-19T02:58:12.174Z,22.30
2023-04-19T03:00:47.027Z,21.03
2023-04-19T03:03:18.834Z,21.67
2023-04-19T03:05:48.701Z,24.93
2023-04-19T03:08:17.030Z,23.53
2023-04-19T03:10:47.068Z,23.33
2023-04-19T03:13:15.699Z,23.27
2023-04-19T03:15:44.523Z,26.87
2023-04-19T03:18:13.730Z,27.33
2023-04-19T03:20:44.393Z,24.00
2023-04-19T03:23:14.963Z,25.43
2023-04-19T03:25:43.762Z,24.37
2023-04-19T03:28:27.144Z,25.60
2023-04-19T03:31:18.375Z,27.67
2023-04-19T03:33:52.146Z,27.40
2023-04-19T03:36:23.585Z,25.03
2023-04-19T03:38:53.613Z,26.37
2023-04-19T03:41:25.608Z,26.63
2023-04-19T03:44:10.465Z,27.07
2023-04-19T03:46:40.750Z,29.50
2023-04-19T03:49:09.579Z,24.73
2023-04-19T03:51:38.734Z,23.20
2023-04-19T03:54:10.183Z,25.23
2023-04-19T03:56:39.487Z,24.77
2023-04-19T03:59:08.282Z,26.97
2023-04-19T04:01:41.962Z,27.93
2023-04-19T04:04:12.023Z,25.70
2023-04-19T04:06:42.341Z,26.10
2023-04-19T04:09:12.464Z,25.67
2023-04-19T04:11:41.220Z,21.83
2023-04-19T04:14:10.075Z,24.00
2023-04-19T04:16:40.351Z,26.80
2023-04-19T04:19:09.905Z,24.73
2023-04-19T04:21:42.033Z,22.77
2023-04-19T04:24:12.736Z,24.17
2023-04-19T04:26:57.932Z,26.03
2023-04-19T04:29:30.846Z,22.97
2023-04-19T04:32:01.923Z,24.93
2023-04-19T04:34:37.975Z,27.23
2023-04-19T04:37:13.719Z,25.10
2023-04-19T04:39:45.238Z,25.07
2023-04-19T04:42:14.153Z,26.20
2023-04-19T04:44:45.007Z,24.07
2023-04-19T04:47:14.926Z,24.47
2023-04-19T04:49:56.682Z,26.90
2023-04-19T04:52:25.060Z,23.67
2023-04-19T04:55:03.569Z,25.00
2023-04-19T04:57:36.461Z,24.13
2023-04-19T05:00:09.562Z,24.97
2023-04-19T05:02:45.787Z,24.20
2023-04-19T05:05:14.552Z,23.63
2023-04-19T05:07:43.208Z,25.27
2023-04-19T05:10:13.914Z,24.70
2023-04-19T05:12:46.524Z,24.43
2023-04-19T05:15:15.503Z,23.17
2023-04-19T05:17:50.318Z,22.47
2023-04-19T05:20:20.254Z,23.80
2023-04-19T05:22:51.608Z,25.63
2023-04-19T05:25:22.301Z,24.50
2023-04-19T05:27:51.847Z,22.97
2023-04-19T05:30:20.930Z,23.50
2023-04-19T05:32:49.759Z,27.40
2023-04-19T05:35:20.011Z,22.03
2023-04-19T05:37:48.678Z,24.10
2023-04-19T05:40:17.534Z,24.90
2023-04-19T05:42:47.788Z,22.70
2023-04-19T05:45:19.319Z,21.40
2023-04-19T05:47:48.097Z,22.50
2023-04-19T05:50:18.248Z,19.57
2023-04-19T05:52:53.631Z,20.57
2023-04-19T05:55:22.510Z,21.20
2023-04-19T05:57:54.049Z,21.33
2023-04-19T06:00:26.198Z,22.60
2023-04-19T06:03:02.480Z,23.07
2023-04-19T06:05:31.240Z,21.63
2023-04-19T06:08:02.819Z,25.63
2023-04-19T06:10:41.219Z,21.37
2023-04-19T06:13:21.174Z,21.47
2023-04-19T06:15:49.932Z,22.50
2023-04-19T06:18:20.224Z,20.13
2023-04-19T06:20:49.306Z,21.43
2023-04-19T06:23:18.735Z,24.70
2023-04-19T06:25:48.975Z,26.57
2023-04-19T06:28:17.838Z,28.83
2023-04-19T06:30:47.807Z,24.27
2023-04-19T06:33:16.531Z,22.93
2023-04-19T06:35:45.304Z,22.17
2023-04-19T06:38:13.960Z,22.87
2023-04-19T06:40:42.418Z,22.37
2023-04-19T06:43:11.335Z,23.17
2023-04-19T06:45:39.980Z,22.15
2023-04-19T06:48:11.534Z,21.23
2023-04-19T06:50:40.609Z,21.08
2023-04-19T06:53:09.352Z,18.42
2023-04-19T06:55:38.221Z,21.02
2023-04-19T06:58:10.695Z,21.45
2023-04-19T07:00:39.637Z,20.25
2023-04-19T07:03:10.150Z,23.65
2023-04-19T07:05:38.933Z,21.17
2023-04-19T07:08:07.678Z,20.58
2023-04-19T07:10:36.394Z,25.88
2023-04-19T07:13:05.138Z,22.05
2023-04-19T07:15:33.856Z,23.05
2023-04-19T07:18:02.653Z,26.90
2023-04-19T07:20:32.640Z,24.05
2023-04-19T07:23:01.429Z,26.33
2023-04-19T07:25:30.132Z,26.58
2023-04-19T07:27:58.870Z,25.45
2023-04-19T07:30:28.320Z,23.63
2023-04-19T07:32:57.033Z,22.33
2023-04-19T07:35:25.744Z,22.77
2023-04-19T07:37:55.816Z,27.05
2023-04-19T07:40:24.550Z,21.80
2023-04-19T07:42:53.357Z,22.08
2023-04-19T07:45:21.991Z,21.35
2023-04-19T07:47:50.896Z,22.67
2023-04-19T07:50:21.312Z,21.70
2023-04-19T07:52:51.138Z,21.73
2023-04-19T07:55:22.084Z,24.65
2023-04-19T07:57:51.092Z,23.98
2023-04-19T08:00:21.606Z,17.55
2023-04-19T08:02:51.230Z,19.35
2023-04-19T08:05:20.572Z,18.73
2023-04-19T08:07:49.451Z,19.02
2023-04-19T08:10:19.910Z,19.48
2023-04-19T08:15:50.968Z,21.13
2023-04-19T08:18:14.688Z,19.60
2023-04-19T08:20:43.518Z,19.75
2023-04-19T08:23:21.561Z,20.25
2023-04-19T08:25:53.308Z,18.38
2023-04-19T08:28:24.120Z,20.30
2023-04-19T08:30:52.365Z,20.40
2023-04-19T08:33:21.338Z,19.70
2023-04-19T08:35:50.174Z,18.35
2023-04-19T08:38:18.851Z,18.65
2023-04-19T08:40:52.649Z,19.35
2023-04-19T08:43:23.136Z,17.88
2023-04-19T08:45:52.319Z,19.27
2023-04-19T08:48:21.716Z,21.00
2023-04-19T08:51:03.548Z,20.65
2023-04-19T08:53:36.097Z,19.80
2023-04-19T08:56:12.848Z,18.35
2023-04-19T09:01:30.959Z,21.20
2023-04-19T09:04:26.243Z,16.00
2023-04-19T09:06:54.476Z,19.50
2023-04-19T09:09:35.452Z,17.80
2023-04-19T09:12:18.757Z,20.63
2023-04-19T09:15:01.294Z,18.60
2023-04-19T09:17:31.684Z,19.80
2023-04-19T09:20:00.714Z,18.80
2023-04-19T09:22:29.479Z,18.00
2023-04-19T09:27:32.406Z,18.77
2023-04-19T09:30:04.481Z,17.23
2023-04-19T09:32:49.698Z,19.67
2023-04-19T09:35:18.629Z,19.30
2023-04-19T09:40:33.061Z,23.40
2023-04-19T09:45:43.862Z,22.67
2023-04-19T09:48:14.007Z,22.03
2023-04-19T09:50:59.696Z,19.87
2023-04-19T09:53:30.412Z,20.57
2023-04-19T09:56:02.368Z,20.13
2023-04-19T09:58:46.941Z,15.80
2023-04-19T10:01:22.644Z,18.30
2023-04-19T10:03:53.650Z,18.40
2023-04-19T10:08:56.298Z,21.97
2023-04-19T10:11:28.233Z,19.63
2023-04-19T10:14:03.818Z,20.13
2023-04-19T10:16:34.853Z,19.43
2023-04-19T10:19:06.223Z,20.40
2023-04-19T10:21:36.766Z,21.60
2023-04-19T10:24:06.869Z,20.63
2023-04-19T10:27:11.056Z,20.90
2023-04-19T10:29:59.513Z,22.13
2023-04-19T10:32:31.961Z,22.77
2023-04-19T10:35:06.182Z,20.23
2023-04-19T10:37:35.026Z,20.20
2023-04-19T10:40:05.370Z,21.23
2023-04-19T10:43:07.511Z,19.87
2023-04-19T10:45:36.619Z,16.40
2023-04-19T10:48:07.165Z,19.67
2023-04-19T10:50:58.750Z,19.20
2023-04-19T10:53:54.255Z,20.90
2023-04-19T10:56:41.109Z,20.47
2023-04-19T10:59:24.831Z,18.20
2023-04-19T11:01:58.598Z,20.67
2023-04-19T11:05:02.215Z,19.47
2023-04-19T11:07:38.576Z,16.63
2023-04-19T11:10:07.787Z,19.03
2023-04-19T11:12:37.284Z,17.90
2023-04-19T11:15:09.480Z,19.30
2023-04-19T11:17:39.612Z,18.60
2023-04-19T11:20:14.347Z,16.70
2023-04-19T11:22:43.968Z,19.13
2023-04-19T11:25:14.227Z,18.63
2023-04-19T11:27:44.282Z,17.67
2023-04-19T11:30:14.812Z,18.00
2023-04-19T11:32:48.362Z,15.10
2023-04-19T11:35:20.836Z,21.27
2023-04-19T11:37:50.016Z,18.90
2023-04-19T11:40:20.098Z,20.00
2023-04-19T11:42:54.217Z,20.23
2023-04-19T11:45:32.313Z,19.60
2023-04-19T11:48:05.408Z,19.67
2023-04-19T11:50:38.699Z,20.37
2023-04-19T11:53:16.749Z,21.37
2023-04-19T11:55:47.073Z,21.40
2023-04-19T11:58:30.111Z,24.53
2023-04-19T12:01:04.156Z,23.53
2023-04-19T12:03:33.188Z,25.40
2023-04-19T12:06:05.250Z,23.93
2023-04-19T12:08:38.775Z,25.30
2023-04-19T12:11:08.061Z,27.43
2023-04-19T12:13:37.492Z,23.97
2023-04-19T12:16:07.086Z,25.43
2023-04-19T12:18:48.340Z,23.93
2023-04-19T12:21:29.063Z,23.20
2023-04-19T12:23:59.001Z,25.63
2023-04-19T12:26:30.085Z,22.00
2023-04-19T12:28:59.693Z,24.67
2023-04-19T12:31:29.052Z,22.73
2023-04-19T12:33:58.046Z,26.43
2023-04-19T12:36:28.703Z,25.00
2023-04-19T12:38:57.309Z,22.90
2023-04-19T12:41:25.978Z,26.13
2023-04-19T12:43:54.586Z,22.07
2023-04-19T12:46:23.206Z,22.87
2023-04-19T12:48:51.897Z,23.83
2023-04-19T12:51:20.804Z,21.23
2023-04-19T12:53:51.870Z,21.67
2023-04-19T12:56:21.307Z,18.57
2023-04-19T12:58:49.922Z,19.40
2023-04-19T13:01:18.614Z,16.77
2023-04-19T13:03:47.696Z,15.00
2023-04-19T13:06:17.316Z,15.10
2023-04-19T13:08:47.801Z,15.80
2023-04-19T13:11:23.129Z,15.57
2023-04-19T13:13:53.623Z,14.97
2023-04-19T13:16:22.784Z,12.40
2023-04-19T13:18:52.738Z,15.83
2023-04-19T13:21:23.095Z,15.37
2023-04-19T13:23:51.861Z,15.27
2023-04-19T13:26:22.154Z,14.17
2023-04-19T13:28:50.999Z,12.53
2023-04-19T13:31:19.701Z,13.07
2023-04-19T13:33:48.423Z,12.07
2023-04-19T13:36:17.038Z,11.67
2023-04-19T13:38:46.938Z,14.70
2023-04-19T13:41:15.933Z,13.20
2023-04-19T13:43:46.574Z,13.30
2023-04-19T13:46:15.428Z,14.57
2023-04-19T13:48:44.136Z,14.53
2023-04-19T13:51:12.847Z,16.20
2023-04-19T13:53:41.730Z,16.27
2023-04-19T13:56:10.831Z,16.40
2023-04-19T13:58:39.563Z,16.00
2023-04-19T14:01:09.799Z,15.63
2023-04-19T14:03:38.691Z,15.50
2023-04-19T14:06:07.778Z,15.73
2023-04-19T14:08:36.455Z,16.03
2023-04-19T14:11:06.230Z,16.57
2023-04-19T14:13:34.835Z,17.53
2023-04-19T14:16:03.667Z,16.93
2023-04-19T14:18:33.747Z,16.50
2023-04-19T14:21:02.389Z,15.67
2023-04-19T14:23:31.290Z,15.20
2023-04-19T14:25:59.938Z,14.20
2023-04-19T14:28:28.609Z,16.00
2023-04-19T14:30:57.273Z,13.47
2023-04-19T14:33:26.855Z,15.47
2023-04-19T14:35:57.011Z,14.83
2023-04-19T14:38:25.691Z,16.07
2023-04-19T14:40:54.596Z,14.07
2023-04-19T14:43:23.262Z,13.07
2023-04-19T14:45:52.034Z,12.40
2023-04-19T14:48:22.195Z,15.60
2023-04-19T14:50:51.388Z,12.93
2023-04-19T14:53:21.383Z,10.97
2023-04-19T14:55:50.096Z,11.88
2023-04-19T14:58:18.915Z,12.20
2023-04-19T15:00:47.539Z,12.00
2023-04-19T15:03:17.094Z,11.55
2023-04-19T15:05:45.931Z,13.18
2023-04-19T15:08:27.160Z,11.90
2023-04-19T15:11:00.523Z,11.30
2023-04-19T15:13:29.812Z,13.77
2023-04-19T15:15:59.581Z,12.93
2023-04-19T15:18:29.875Z,13.73
2023-04-19T15:20:58.540Z,12.73
2023-04-19T15:23:27.310Z,22.73
2023-04-19T15:25:56.245Z,12.90
2023-04-19T15:28:26.821Z,18.67
2023-04-19T15:30:59.979Z,16.07
2023-04-19T15:33:29.216Z,14.97
2023-04-19T15:35:58.940Z,14.37
2023-04-19T15:38:29.552Z,14.53
2023-04-19T15:40:59.709Z,14.80
2023-04-19T15:43:30.172Z,15.10
2023-04-19T15:45:58.926Z,13.80
2023-04-19T15:48:29.753Z,12.67
2023-04-19T15:50:58.147Z,13.13
2023-04-19T15:53:26.878Z,12.33
2023-04-19T15:55:56.188Z,11.17
2023-04-19T15:58:25.613Z,11.13
2023-04-19T16:00:56.284Z,13.00
2023-04-19T16:03:25.519Z,12.07
2023-04-19T16:05:55.512Z,9.77
2023-04-19T16:08:24.478Z,11.77
2023-04-19T16:10:53.614Z,10.40
2023-04-19T16:13:22.337Z,11.57
2023-04-19T16:15:51.092Z,33.90
2023-04-19T16:18:21.911Z,12.10
2023-04-19T16:20:50.796Z,10.40
2023-04-19T16:23:19.902Z,8.27
2023-04-19T16:25:48.854Z,8.93
2023-04-19T16:28:19.219Z,10.03
2023-04-19T16:30:48.215Z,9.33
2023-04-19T16:33:16.972Z,9.10
2023-04-19T16:35:48.994Z,7.05
2023-04-19T16:38:17.618Z,8.82
2023-04-19T16:40:48.726Z,8.60
2023-04-19T16:43:17.356Z,8.05
2023-04-19T16:45:46.068Z,9.75
2023-04-19T16:48:14.841Z,9.23
2023-04-19T16:50:43.482Z,8.93
2023-04-19T16:53:13.236Z,9.45
2023-04-19T16:55:42.332Z,9.88
2023-04-19T16:58:11.003Z,9.43
2023-04-19T17:00:40.961Z,9.97
2023-04-19T17:03:10.342Z,9.63
2023-04-19T17:05:40.092Z,10.23
2023-04-19T17:08:10.151Z,9.65
2023-04-19T17:10:41.618Z,11.17
2023-04-19T17:13:10.211Z,15.07
2023-04-19T17:15:39.447Z,13.77
2023-04-19T17:18:08.284Z,9.33
2023-04-19T17:20:36.961Z,13.03
2023-04-19T17:23:05.627Z,11.93
2023-04-19T17:25:34.262Z,14.53
2023-04-19T17:28:05.968Z,20.60
2023-04-19T17:30:35.041Z,15.87
2023-04-19T17:33:03.774Z,13.73
2023-04-19T17:35:32.426Z,16.17
2023-04-19T17:38:01.301Z,14.53
2023-04-19T17:40:29.992Z,13.00
2023-04-19T17:42:58.855Z,13.30
2023-04-19T17:45:29.015Z,14.17
2023-04-19T17:47:58.128Z,14.00
2023-04-19T17:50:27.292Z,14.33
2023-04-19T17:52:56.087Z,12.77
2023-04-19T17:55:25.513Z,13.80
2023-04-19T17:57:54.324Z,16.00
2023-04-19T18:00:23.290Z,12.47
2023-04-19T18:02:53.471Z,14.73
2023-04-19T18:05:22.309Z,18.03
2023-04-19T18:07:51.334Z,17.10
2023-04-19T18:10:20.525Z,15.87
2023-04-19T18:12:49.122Z,16.80
2023-04-19T18:15:17.912Z,15.50
2023-04-19T18:17:47.615Z,15.37
2023-04-19T18:20:17.860Z,17.37
2023-04-19T18:22:50.411Z,14.97
2023-04-19T18:25:19.599Z,13.87
2023-04-19T18:27:50.650Z,15.33
2023-04-19T18:30:19.612Z,16.87
2023-04-19T18:32:48.687Z,15.10
2023-04-19T18:35:19.004Z,18.30
2023-04-19T18:37:47.921Z,19.00
2023-04-19T18:40:17.669Z,17.10
2023-04-19T18:42:46.514Z,17.33
2023-04-19T18:45:15.532Z,16.47
2023-04-19T18:47:44.267Z,17.17
2023-04-19T18:50:15.429Z,15.57
2023-04-19T18:52:48.629Z,19.50
2023-04-19T18:55:17.298Z,14.77
2023-04-19T18:57:46.032Z,11.20
2023-04-19T19:00:15.623Z,14.57
2023-04-19T19:02:44.976Z,17.10
2023-04-19T19:05:15.828Z,17.70
2023-04-19T19:07:45.452Z,16.33
2023-04-19T19:10:19.290Z,15.17
2023-04-19T19:12:51.129Z,19.23
2023-04-19T19:15:20.083Z,20.77
2023-04-19T19:17:50.464Z,18.17
2023-04-19T19:20:20.151Z,16.37
2023-04-19T19:22:49.053Z,16.97
2023-04-19T19:25:19.286Z,20.13
2023-04-19T19:28:05.514Z,18.23
2023-04-19T19:30:39.822Z,18.17
2023-04-19T19:33:08.866Z,19.17
2023-04-19T19:35:40.119Z,19.17
2023-04-19T19:38:08.914Z,14.80
2023-04-19T19:40:59.432Z,13.97
2023-04-19T19:43:27.952Z,15.33
2023-04-19T19:45:56.700Z,16.37
2023-04-19T19:48:26.555Z,19.73
2023-04-19T19:53:32.407Z,19.40
2023-04-19T19:56:02.553Z,18.97
2023-04-19T20:01:03.079Z,16.67
2023-04-19T20:03:37.380Z,17.10
2023-04-19T20:08:43.743Z,16.80
2023-04-19T20:11:14.377Z,16.27
2023-04-19T20:13:43.382Z,17.20
2023-04-19T20:16:11.992Z,12.80
2023-04-19T20:18:42.547Z,12.13
2023-04-19T20:21:11.163Z,13.27
2023-04-19T20:23:40.172Z,13.67
2023-04-19T20:26:09.013Z,11.30
2023-04-19T20:28:38.992Z,11.53
2023-04-19T20:31:08.143Z,10.70
2023-04-19T20:33:36.787Z,9.67
2023-04-19T20:36:06.706Z,10.37
2023-04-19T20:38:35.787Z,12.30
2023-04-19T20:41:04.438Z,10.83
2023-04-19T20:43:33.296Z,9.57
2023-04-19T20:46:03.097Z,8.80
2023-04-19T20:48:31.786Z,9.70
2023-04-19T20:51:00.414Z,9.83
2023-04-19T20:53:29.013Z,10.83
2023-04-19T20:55:57.718Z,11.33
2023-04-19T20:58:26.491Z,9.17
2023-04-19T21:00:55.124Z,9.40
2023-04-19T21:03:25.765Z,8.07
2023-04-19T21:05:54.491Z,10.97
2023-04-19T21:08:25.310Z,7.70
2023-04-19T21:10:54.247Z,7.67
2023-04-19T21:13:23.154Z,7.33
2023-04-19T21:15:52.131Z,7.43
2023-04-19T21:18:23.039Z,6.10
2023-04-19T21:20:53.012Z,6.30
2023-04-19T21:23:21.905Z,7.07
2023-04-19T21:25:50.589Z,7.73
2023-04-19T21:28:19.383Z,5.10
2023-04-19T21:30:48.051Z,5.93
2023-04-19T21:33:18.097Z,6.87
2023-04-19T21:35:46.369Z,6.80
2023-04-19T21:38:16.577Z,5.90
2023-04-19T21:40:45.183Z,9.43
2023-04-19T21:43:13.830Z,5.80
2023-04-19T21:45:42.504Z,6.60
2023-04-19T21:48:11.124Z,6.63
2023-04-19T21:50:39.692Z,5.40
2023-04-19T21:53:08.261Z,6.07
2023-04-19T21:55:38.200Z,6.73
2023-04-19T21:58:06.789Z,5.53
2023-04-19T22:00:35.469Z,5.60
2023-04-19T22:03:04.329Z,5.53
2023-04-19T22:05:33.177Z,7.20
2023-04-19T22:08:02.224Z,7.33
2023-04-19T22:10:31.496Z,5.53
2023-04-19T22:13:02.444Z,6.40
2023-04-19T22:15:31.578Z,6.47
2023-04-19T22:18:02.962Z,7.60
2023-04-19T22:20:32.210Z,8.33
2023-04-19T22:23:01.046Z,9.63
2023-04-19T22:25:32.405Z,6.87
2023-04-19T22:28:02.708Z,11.67
2023-04-19T22:30:31.380Z,9.23
2023-04-19T22:32:59.988Z,6.73
2023-04-19T22:35:28.710Z,7.70
2023-04-19T22:37:57.369Z,6.70
2023-04-19T22:40:26.322Z,8.87
2023-04-19T22:42:54.926Z,9.13
2023-04-19T22:45:24.936Z,7.53
2023-04-19T22:47:53.593Z,6.07
2023-04-19T22:50:23.689Z,7.43
2023-04-19T22:52:52.209Z,6.60
2023-04-19T22:55:20.816Z,9.00
2023-04-19T22:57:49.781Z,6.93
2023-04-19T23:00:18.988Z,6.17
2023-04-19T23:02:49.080Z,10.93
2023-04-19T23:05:18.164Z,6.47
2023-04-19T23:07:46.434Z,7.20
2023-04-19T23:10:15.481Z,8.40
2023-04-19T23:12:44.480Z,6.63
2023-04-19T23:15:13.557Z,6.33
2023-04-19T23:17:42.213Z,7.97
2023-04-19T23:20:13.279Z,9.70
2023-04-19T23:22:41.892Z,5.73
2023-04-19T23:25:11.355Z,6.70
2023-04-19T23:27:40.653Z,6.93
2023-04-19T23:30:10.486Z,7.03
2023-04-19T23:32:39.450Z,8.47
2023-04-19T23:35:08.613Z,7.67
2023-04-19T23:37:38.456Z,6.57
2023-04-19T23:40:08.820Z,7.47
2023-04-19T23:42:38.896Z,6.87
2023-04-19T23:45:09.014Z,6.47
2023-04-19T23:47:38.227Z,8.93
2023-04-19T23:50:07.829Z,6.73
2023-04-19T23:52:37.950Z,7.60
2023-04-19T23:55:07.147Z,6.07
2023-04-19T23:57:36.060Z,6.93
